sensor_id;sensor_type;location;lat;lon;timestamp;P1;durP1;ratioP1;P2;durP2;ratioP2
20417;SDS011;10368;51.436;6.774;2022-11-27T00:01:29;5.50;;;3.23;;
20417;SDS011;10368;51.436;6.774;2022-11-27T00:03:57;13.73;;;4.03;;
20417;SDS011;10368;51.436;6.774;2022-11-27T00:06:25;8.57;;;3.83;;
20417;SDS011;10368;51.436;6.774;2022-11-27T00:08:57;7.23;;;3.40;;
20417;SDS011;10368;51.436;6.774;2022-11-27T00:11:26;9.27;;;2.93;;
20417;SDS011;10368;51.436;6.774;2022-11-27T00:13:54;11.83;;;4.17;;
20417;SDS011;10368;51.436;6.774;2022-11-27T00:16:22;3.70;;;2.53;;
20417;SDS011;10368;51.436;6.774;2022-11-27T00:18:50;5.37;;;2.87;;
20417;SDS011;10368;51.436;6.774;2022-11-27T00:21:38;6.73;;;2.93;;
20417;SDS011;10368;51.436;6.774;2022-11-27T00:24:05;7.83;;;3.20;;
20417;SDS011;10368;51.436;6.774;2022-11-27T00:26:33;8.93;;;2.97;;
20417;SDS011;10368;51.436;6.774;2022-11-27T00:29:03;17.33;;;3.97;;
20417;SDS011;10368;51.436;6.774;2022-11-27T00:31:31;8.43;;;3.53;;
20417;SDS011;10368;51.436;6.774;2022-11-27T00:34:00;6.13;;;2.77;;
20417;SDS011;10368;51.436;6.774;2022-11-27T00:36:29;9.17;;;3.10;;
20417;SDS011;10368;51.436;6.774;2022-11-27T00:38:58;8.03;;;3.03;;
20417;SDS011;10368;51.436;6.774;2022-11-27T00:41:27;9.23;;;2.90;;
20417;SDS011;10368;51.436;6.774;2022-11-27T00:43:55;7.37;;;2.80;;
20417;SDS011;10368;51.436;6.774;2022-11-27T00:46:23;7.67;;;2.90;;
20417;SDS011;10368;51.436;6.774;2022-11-27T00:48:55;12.60;;;3.17;;
20417;SDS011;10368;51.436;6.774;2022-11-27T00:51:23;6.30;;;2.93;;
20417;SDS011;10368;51.436;6.774;2022-11-27T00:53:51;5.17;;;2.40;;
20417;SDS011;10368;51.436;6.774;2022-11-27T00:56:20;9.10;;;2.80;;
20417;SDS011;10368;51.436;6.774;2022-11-27T00:58:52;10.70;;;3.27;;
20417;SDS011;10368;51.436;6.774;2022-11-27T01:01:23;5.83;;;2.90;;
20417;SDS011;10368;51.436;6.774;2022-11-27T01:03:53;7.23;;;2.77;;
20417;SDS011;10368;51.436;6.774;2022-11-27T01:06:21;7.57;;;2.93;;
20417;SDS011;10368;51.436;6.774;2022-11-27T01:08:49;7.30;;;2.90;;
20417;SDS011;10368;51.436;6.774;2022-11-27T01:11:26;7.07;;;3.43;;
20417;SDS011;10368;51.436;6.774;2022-11-27T01:13:55;7.97;;;2.80;;
20417;SDS011;10368;51.436;6.774;2022-11-27T01:16:25;5.33;;;3.10;;
20417;SDS011;10368;51.436;6.774;2022-11-27T01:18:54;7.53;;;3.20;;
20417;SDS011;10368;51.436;6.774;2022-11-27T01:21:23;8.67;;;2.80;;
20417;SDS011;10368;51.436;6.774;2022-11-27T01:23:52;11.60;;;4.80;;
20417;SDS011;10368;51.436;6.774;2022-11-27T01:26:20;9.23;;;3.17;;
20417;SDS011;10368;51.436;6.774;2022-11-27T01:28:50;7.57;;;2.70;;
20417;SDS011;10368;51.436;6.774;2022-11-27T01:31:19;8.00;;;3.73;;
20417;SDS011;10368;51.436;6.774;2022-11-27T01:33:51;4.00;;;2.67;;
20417;SDS011;10368;51.436;6.774;2022-11-27T01:36:19;7.57;;;2.47;;
20417;SDS011;10368;51.436;6.774;2022-11-27T01:38:47;8.40;;;4.30;;
20417;SDS011;10368;51.436;6.774;2022-11-27T01:41:19;7.30;;;2.77;;
20417;SDS011;10368;51.436;6.774;2022-11-27T01:51:40;10.47;;;3.67;;
20417;SDS011;10368;51.436;6.774;2022-11-27T01:54:20;6.00;;;2.63;;
20417;SDS011;10368;51.436;6.774;2022-11-27T01:56:51;6.57;;;2.80;;
20417;SDS011;10368;51.436;6.774;2022-11-27T01:59:21;6.60;;;2.67;;
20417;SDS011;10368;51.436;6.774;2022-11-27T02:01:49;5.90;;;2.67;;
20417;SDS011;10368;51.436;6.774;2022-11-27T02:04:17;6.40;;;2.73;;
20417;SDS011;10368;51.436;6.774;2022-11-27T02:06:45;7.93;;;3.07;;
20417;SDS011;10368;51.436;6.774;2022-11-27T02:09:12;4.90;;;2.77;;
20417;SDS011;10368;51.436;6.774;2022-11-27T02:11:45;9.17;;;3.53;;
20417;SDS011;10368;51.436;6.774;2022-11-27T02:17:05;5.63;;;2.80;;
20417;SDS011;10368;51.436;6.774;2022-11-27T02:28:10;5.73;;;2.53;;
20417;SDS011;10368;51.436;6.774;2022-11-27T02:30:40;6.10;;;2.87;;
20417;SDS011;10368;51.436;6.774;2022-11-27T02:33:10;6.57;;;2.97;;
20417;SDS011;10368;51.436;6.774;2022-11-27T02:38:06;7.53;;;3.07;;
20417;SDS011;10368;51.436;6.774;2022-11-27T02:40:41;5.60;;;3.20;;
20417;SDS011;10368;51.436;6.774;2022-11-27T02:45:38;8.63;;;3.30;;
20417;SDS011;10368;51.436;6.774;2022-11-27T02:48:07;6.87;;;3.00;;
20417;SDS011;10368;51.436;6.774;2022-11-27T02:50:36;8.20;;;3.20;;
20417;SDS011;10368;51.436;6.774;2022-11-27T02:53:05;9.53;;;3.70;;
20417;SDS011;10368;51.436;6.774;2022-11-27T02:55:34;11.30;;;3.53;;
20417;SDS011;10368;51.436;6.774;2022-11-27T02:58:02;9.30;;;3.87;;
20417;SDS011;10368;51.436;6.774;2022-11-27T03:00:31;9.53;;;4.03;;
20417;SDS011;10368;51.436;6.774;2022-11-27T03:03:00;5.97;;;3.23;;
20417;SDS011;10368;51.436;6.774;2022-11-27T03:05:30;5.53;;;3.57;;
20417;SDS011;10368;51.436;6.774;2022-11-27T03:08:00;8.87;;;3.00;;
20417;SDS011;10368;51.436;6.774;2022-11-27T03:10:30;7.77;;;3.57;;
20417;SDS011;10368;51.436;6.774;2022-11-27T03:13:00;6.63;;;3.60;;
20417;SDS011;10368;51.436;6.774;2022-11-27T03:15:36;11.13;;;4.23;;
20417;SDS011;10368;51.436;6.774;2022-11-27T03:18:16;7.10;;;3.73;;
20417;SDS011;10368;51.436;6.774;2022-11-27T03:20:47;10.13;;;3.77;;
20417;SDS011;10368;51.436;6.774;2022-11-27T03:23:17;5.37;;;3.93;;
20417;SDS011;10368;51.436;6.774;2022-11-27T03:25:44;8.03;;;4.23;;
20417;SDS011;10368;51.436;6.774;2022-11-27T03:28:12;8.10;;;3.77;;
20417;SDS011;10368;51.436;6.774;2022-11-27T03:30:39;10.83;;;4.20;;
20417;SDS011;10368;51.436;6.774;2022-11-27T03:33:10;12.27;;;5.47;;
20417;SDS011;10368;51.436;6.774;2022-11-27T03:35:38;7.03;;;4.60;;
20417;SDS011;10368;51.436;6.774;2022-11-27T03:38:05;7.20;;;3.90;;
20417;SDS011;10368;51.436;6.774;2022-11-27T03:40:39;8.17;;;4.47;;
20417;SDS011;10368;51.436;6.774;2022-11-27T03:43:10;8.13;;;4.90;;
20417;SDS011;10368;51.436;6.774;2022-11-27T03:56:33;10.60;;;4.70;;
20417;SDS011;10368;51.436;6.774;2022-11-27T04:01:03;8.07;;;4.57;;
20417;SDS011;10368;51.436;6.774;2022-11-27T04:03:31;15.90;;;5.60;;
20417;SDS011;10368;51.436;6.774;2022-11-27T04:05:59;9.77;;;5.00;;
20417;SDS011;10368;51.436;6.774;2022-11-27T04:08:26;10.13;;;5.50;;
20417;SDS011;10368;51.436;6.774;2022-11-27T04:10:53;7.50;;;4.53;;
20417;SDS011;10368;51.436;6.774;2022-11-27T04:13:20;10.83;;;5.07;;
20417;SDS011;10368;51.436;6.774;2022-11-27T04:15:48;12.93;;;5.17;;
20417;SDS011;10368;51.436;6.774;2022-11-27T04:18:15;9.90;;;5.43;;
20417;SDS011;10368;51.436;6.774;2022-11-27T04:20:42;11.33;;;5.10;;
20417;SDS011;10368;51.436;6.774;2022-11-27T04:23:10;9.30;;;4.40;;
20417;SDS011;10368;51.436;6.774;2022-11-27T04:25:37;10.83;;;5.57;;
20417;SDS011;10368;51.436;6.774;2022-11-27T04:28:04;10.33;;;5.63;;
20417;SDS011;10368;51.436;6.774;2022-11-27T04:30:31;11.03;;;5.77;;
20417;SDS011;10368;51.436;6.774;2022-11-27T04:32:59;13.77;;;5.80;;
20417;SDS011;10368;51.436;6.774;2022-11-27T04:35:26;10.33;;;6.07;;
20417;SDS011;10368;51.436;6.774;2022-11-27T04:37:55;12.13;;;5.90;;
20417;SDS011;10368;51.436;6.774;2022-11-27T04:40:23;11.83;;;5.60;;
20417;SDS011;10368;51.436;6.774;2022-11-27T04:42:50;11.23;;;6.20;;
20417;SDS011;10368;51.436;6.774;2022-11-27T04:45:18;10.43;;;6.47;;
20417;SDS011;10368;51.436;6.774;2022-11-27T04:47:45;11.63;;;5.57;;
20417;SDS011;10368;51.436;6.774;2022-11-27T04:50:12;12.80;;;5.47;;
20417;SDS011;10368;51.436;6.774;2022-11-27T04:52:40;7.40;;;5.03;;
20417;SDS011;10368;51.436;6.774;2022-11-27T04:55:07;12.50;;;6.00;;
20417;SDS011;10368;51.436;6.774;2022-11-27T04:57:35;14.67;;;6.40;;
20417;SDS011;10368;51.436;6.774;2022-11-27T05:00:03;11.17;;;5.57;;
20417;SDS011;10368;51.436;6.774;2022-11-27T05:02:30;9.77;;;5.70;;
20417;SDS011;10368;51.436;6.774;2022-11-27T05:04:58;8.07;;;5.50;;
20417;SDS011;10368;51.436;6.774;2022-11-27T05:07:25;10.33;;;5.63;;
20417;SDS011;10368;51.436;6.774;2022-11-27T05:09:52;16.10;;;6.17;;
20417;SDS011;10368;51.436;6.774;2022-11-27T05:12:20;11.23;;;5.73;;
20417;SDS011;10368;51.436;6.774;2022-11-27T05:14:47;11.73;;;6.77;;
20417;SDS011;10368;51.436;6.774;2022-11-27T05:17:14;9.37;;;5.90;;
20417;SDS011;10368;51.436;6.774;2022-11-27T05:19:42;9.00;;;5.43;;
20417;SDS011;10368;51.436;6.774;2022-11-27T05:22:09;8.93;;;5.27;;
20417;SDS011;10368;51.436;6.774;2022-11-27T05:24:36;8.53;;;5.90;;
20417;SDS011;10368;51.436;6.774;2022-11-27T05:27:04;10.27;;;5.67;;
20417;SDS011;10368;51.436;6.774;2022-11-27T05:29:31;10.70;;;5.43;;
20417;SDS011;10368;51.436;6.774;2022-11-27T05:31:59;13.03;;;5.40;;
20417;SDS011;10368;51.436;6.774;2022-11-27T05:34:26;10.73;;;5.80;;
20417;SDS011;10368;51.436;6.774;2022-11-27T05:36:53;10.97;;;5.83;;
20417;SDS011;10368;51.436;6.774;2022-11-27T05:39:21;11.37;;;6.47;;
20417;SDS011;10368;51.436;6.774;2022-11-27T05:41:49;8.20;;;5.33;;
20417;SDS011;10368;51.436;6.774;2022-11-27T05:44:16;12.67;;;5.43;;
20417;SDS011;10368;51.436;6.774;2022-11-27T05:46:43;10.17;;;6.27;;
20417;SDS011;10368;51.436;6.774;2022-11-27T05:49:11;10.53;;;5.97;;
20417;SDS011;10368;51.436;6.774;2022-11-27T05:51:39;7.63;;;6.23;;
20417;SDS011;10368;51.436;6.774;2022-11-27T05:54:11;10.17;;;6.10;;
20417;SDS011;10368;51.436;6.774;2022-11-27T05:56:38;11.97;;;5.90;;
20417;SDS011;10368;51.436;6.774;2022-11-27T05:59:06;9.77;;;5.60;;
20417;SDS011;10368;51.436;6.774;2022-11-27T06:01:35;10.17;;;5.00;;
20417;SDS011;10368;51.436;6.774;2022-11-27T06:04:02;8.97;;;5.63;;
20417;SDS011;10368;51.436;6.774;2022-11-27T06:06:30;11.17;;;6.23;;
20417;SDS011;10368;51.436;6.774;2022-11-27T06:08:57;9.60;;;6.40;;
20417;SDS011;10368;51.436;6.774;2022-11-27T06:11:24;9.73;;;5.83;;
20417;SDS011;10368;51.436;6.774;2022-11-27T06:13:51;7.90;;;5.73;;
20417;SDS011;10368;51.436;6.774;2022-11-27T06:16:20;10.03;;;5.33;;
20417;SDS011;10368;51.436;6.774;2022-11-27T06:18:48;8.20;;;6.13;;
20417;SDS011;10368;51.436;6.774;2022-11-27T06:21:16;9.03;;;5.47;;
20417;SDS011;10368;51.436;6.774;2022-11-27T06:23:43;10.20;;;5.40;;
20417;SDS011;10368;51.436;6.774;2022-11-27T06:26:13;11.13;;;6.97;;
20417;SDS011;10368;51.436;6.774;2022-11-27T06:28:40;11.20;;;5.80;;
20417;SDS011;10368;51.436;6.774;2022-11-27T06:31:08;7.37;;;4.33;;
20417;SDS011;10368;51.436;6.774;2022-11-27T06:33:43;8.23;;;4.67;;
20417;SDS011;10368;51.436;6.774;2022-11-27T06:36:10;9.73;;;5.10;;
20417;SDS011;10368;51.436;6.774;2022-11-27T06:38:37;10.50;;;5.07;;
20417;SDS011;10368;51.436;6.774;2022-11-27T06:41:06;8.40;;;4.97;;
20417;SDS011;10368;51.436;6.774;2022-11-27T06:43:33;11.37;;;5.47;;
20417;SDS011;10368;51.436;6.774;2022-11-27T06:46:01;12.70;;;5.23;;
20417;SDS011;10368;51.436;6.774;2022-11-27T06:48:29;7.87;;;4.70;;
20417;SDS011;10368;51.436;6.774;2022-11-27T06:51:00;7.67;;;5.20;;
20417;SDS011;10368;51.436;6.774;2022-11-27T06:53:29;12.03;;;5.50;;
20417;SDS011;10368;51.436;6.774;2022-11-27T06:55:56;10.07;;;5.30;;
20417;SDS011;10368;51.436;6.774;2022-11-27T06:58:23;8.70;;;5.40;;
20417;SDS011;10368;51.436;6.774;2022-11-27T07:01:00;8.27;;;4.67;;
20417;SDS011;10368;51.436;6.774;2022-11-27T07:03:27;9.33;;;4.77;;
20417;SDS011;10368;51.436;6.774;2022-11-27T07:05:54;8.97;;;4.53;;
20417;SDS011;10368;51.436;6.774;2022-11-27T07:08:25;10.00;;;4.77;;
20417;SDS011;10368;51.436;6.774;2022-11-27T07:10:52;8.70;;;4.73;;
20417;SDS011;10368;51.436;6.774;2022-11-27T07:13:19;7.53;;;5.57;;
20417;SDS011;10368;51.436;6.774;2022-11-27T07:15:46;16.10;;;4.97;;
20417;SDS011;10368;51.436;6.774;2022-11-27T07:18:14;6.73;;;4.63;;
20417;SDS011;10368;51.436;6.774;2022-11-27T07:20:41;9.03;;;5.13;;
20417;SDS011;10368;51.436;6.774;2022-11-27T07:23:08;7.50;;;4.87;;
20417;SDS011;10368;51.436;6.774;2022-11-27T07:25:38;4.73;;;4.27;;
20417;SDS011;10368;51.436;6.774;2022-11-27T07:28:05;7.73;;;4.60;;
20417;SDS011;10368;51.436;6.774;2022-11-27T07:30:32;8.13;;;5.10;;
20417;SDS011;10368;51.436;6.774;2022-11-27T07:33:02;8.57;;;4.47;;
20417;SDS011;10368;51.436;6.774;2022-11-27T07:35:29;7.27;;;5.10;;
20417;SDS011;10368;51.436;6.774;2022-11-27T07:37:56;9.10;;;5.13;;
20417;SDS011;10368;51.436;6.774;2022-11-27T07:40:24;7.37;;;4.73;;
20417;SDS011;10368;51.436;6.774;2022-11-27T07:42:51;7.10;;;4.40;;
20417;SDS011;10368;51.436;6.774;2022-11-27T07:45:18;8.97;;;5.30;;
20417;SDS011;10368;51.436;6.774;2022-11-27T07:47:46;7.87;;;4.70;;
20417;SDS011;10368;51.436;6.774;2022-11-27T07:50:13;5.67;;;4.27;;
20417;SDS011;10368;51.436;6.774;2022-11-27T07:52:43;7.93;;;5.23;;
20417;SDS011;10368;51.436;6.774;2022-11-27T07:55:13;8.13;;;4.30;;
20417;SDS011;10368;51.436;6.774;2022-11-27T07:57:41;7.30;;;4.33;;
20417;SDS011;10368;51.436;6.774;2022-11-27T08:00:08;7.33;;;4.63;;
20417;SDS011;10368;51.436;6.774;2022-11-27T08:02:37;7.17;;;4.63;;
20417;SDS011;10368;51.436;6.774;2022-11-27T08:05:05;8.53;;;4.20;;
20417;SDS011;10368;51.436;6.774;2022-11-27T08:07:38;6.53;;;4.33;;
20417;SDS011;10368;51.436;6.774;2022-11-27T08:10:06;7.50;;;4.83;;
20417;SDS011;10368;51.436;6.774;2022-11-27T08:12:33;6.67;;;4.40;;
20417;SDS011;10368;51.436;6.774;2022-11-27T08:15:01;7.30;;;4.13;;
20417;SDS011;10368;51.436;6.774;2022-11-27T08:17:30;6.60;;;4.03;;
20417;SDS011;10368;51.436;6.774;2022-11-27T08:19:57;4.77;;;3.90;;
20417;SDS011;10368;51.436;6.774;2022-11-27T08:22:24;8.57;;;4.27;;
20417;SDS011;10368;51.436;6.774;2022-11-27T08:24:51;6.43;;;3.93;;
20417;SDS011;10368;51.436;6.774;2022-11-27T08:27:19;7.47;;;4.27;;
20417;SDS011;10368;51.436;6.774;2022-11-27T08:29:47;6.10;;;3.40;;
20417;SDS011;10368;51.436;6.774;2022-11-27T08:32:14;7.37;;;4.23;;
20417;SDS011;10368;51.436;6.774;2022-11-27T08:34:41;5.63;;;4.27;;
20417;SDS011;10368;51.436;6.774;2022-11-27T08:37:09;6.27;;;3.90;;
20417;SDS011;10368;51.436;6.774;2022-11-27T08:39:36;8.30;;;3.73;;
20417;SDS011;10368;51.436;6.774;2022-11-27T08:42:03;5.43;;;3.97;;
20417;SDS011;10368;51.436;6.774;2022-11-27T08:44:31;7.23;;;4.40;;
20417;SDS011;10368;51.436;6.774;2022-11-27T08:46:58;7.50;;;3.43;;
20417;SDS011;10368;51.436;6.774;2022-11-27T08:49:26;6.67;;;3.40;;
20417;SDS011;10368;51.436;6.774;2022-11-27T08:51:53;5.87;;;4.07;;
20417;SDS011;10368;51.436;6.774;2022-11-27T08:54:20;4.47;;;3.50;;
20417;SDS011;10368;51.436;6.774;2022-11-27T08:56:48;5.87;;;3.70;;
20417;SDS011;10368;51.436;6.774;2022-11-27T08:59:15;5.90;;;3.20;;
20417;SDS011;10368;51.436;6.774;2022-11-27T09:01:42;6.27;;;3.73;;
20417;SDS011;10368;51.436;6.774;2022-11-27T09:04:10;5.57;;;3.70;;
20417;SDS011;10368;51.436;6.774;2022-11-27T09:06:39;6.87;;;3.47;;
20417;SDS011;10368;51.436;6.774;2022-11-27T09:09:06;5.70;;;3.30;;
20417;SDS011;10368;51.436;6.774;2022-11-27T09:11:34;4.90;;;3.20;;
20417;SDS011;10368;51.436;6.774;2022-11-27T09:14:02;8.07;;;3.83;;
20417;SDS011;10368;51.436;6.774;2022-11-27T09:16:30;5.97;;;3.40;;
20417;SDS011;10368;51.436;6.774;2022-11-27T09:18:57;6.13;;;3.47;;
20417;SDS011;10368;51.436;6.774;2022-11-27T09:21:25;5.97;;;3.97;;
20417;SDS011;10368;51.436;6.774;2022-11-27T09:23:53;4.80;;;3.57;;
20417;SDS011;10368;51.436;6.774;2022-11-27T09:26:21;5.43;;;4.00;;
20417;SDS011;10368;51.436;6.774;2022-11-27T09:28:51;4.70;;;3.40;;
20417;SDS011;10368;51.436;6.774;2022-11-27T09:31:19;4.30;;;3.73;;
20417;SDS011;10368;51.436;6.774;2022-11-27T09:33:46;5.97;;;4.03;;
20417;SDS011;10368;51.436;6.774;2022-11-27T09:36:21;4.70;;;3.40;;
20417;SDS011;10368;51.436;6.774;2022-11-27T09:38:48;6.07;;;3.40;;
20417;SDS011;10368;51.436;6.774;2022-11-27T09:41:24;6.43;;;3.60;;
20417;SDS011;10368;51.436;6.774;2022-11-27T09:43:56;8.47;;;3.83;;
20417;SDS011;10368;51.436;6.774;2022-11-27T09:46:25;4.70;;;3.43;;
20417;SDS011;10368;51.436;6.774;2022-11-27T09:48:55;4.70;;;3.37;;
20417;SDS011;10368;51.436;6.774;2022-11-27T09:53:54;8.77;;;3.83;;
20417;SDS011;10368;51.436;6.774;2022-11-27T09:56:22;9.03;;;3.07;;
20417;SDS011;10368;51.436;6.774;2022-11-27T09:58:55;5.37;;;3.67;;
20417;SDS011;10368;51.436;6.774;2022-11-27T10:01:23;7.37;;;4.00;;
20417;SDS011;10368;51.436;6.774;2022-11-27T10:04:00;6.43;;;3.50;;
20417;SDS011;10368;51.436;6.774;2022-11-27T10:16:58;8.53;;;5.57;;
20417;SDS011;10368;51.436;6.774;2022-11-27T10:19:41;5.93;;;3.57;;
20417;SDS011;10368;51.436;6.774;2022-11-27T10:22:14;4.20;;;3.40;;
20417;SDS011;10368;51.436;6.774;2022-11-27T10:27:19;4.27;;;3.40;;
20417;SDS011;10368;51.436;6.774;2022-11-27T10:29:49;8.30;;;3.33;;
20417;SDS011;10368;51.436;6.774;2022-11-27T10:32:22;6.00;;;3.43;;
20417;SDS011;10368;51.436;6.774;2022-11-27T10:35:16;5.47;;;3.50;;
20417;SDS011;10368;51.436;6.774;2022-11-27T10:37:46;7.97;;;3.60;;
20417;SDS011;10368;51.436;6.774;2022-11-27T10:40:17;7.30;;;3.90;;
20417;SDS011;10368;51.436;6.774;2022-11-27T10:42:47;6.73;;;3.50;;
20417;SDS011;10368;51.436;6.774;2022-11-27T10:48:03;4.57;;;3.47;;
20417;SDS011;10368;51.436;6.774;2022-11-27T10:50:31;5.07;;;3.47;;
20417;SDS011;10368;51.436;6.774;2022-11-27T10:53:00;6.43;;;3.63;;
20417;SDS011;10368;51.436;6.774;2022-11-27T11:00:58;11.30;;;6.93;;
20417;SDS011;10368;51.436;6.774;2022-11-27T11:03:26;7.93;;;4.47;;
20417;SDS011;10368;51.436;6.774;2022-11-27T11:05:55;8.07;;;4.87;;
20417;SDS011;10368;51.436;6.774;2022-11-27T11:08:43;7.43;;;4.77;;
20417;SDS011;10368;51.436;6.774;2022-11-27T11:11:11;6.00;;;4.20;;
20417;SDS011;10368;51.436;6.774;2022-11-27T11:18:44;5.77;;;4.27;;
20417;SDS011;10368;51.436;6.774;2022-11-27T11:21:12;6.80;;;4.67;;
20417;SDS011;10368;51.436;6.774;2022-11-27T11:23:41;7.27;;;5.00;;
20417;SDS011;10368;51.436;6.774;2022-11-27T11:26:14;5.23;;;3.50;;
20417;SDS011;10368;51.436;6.774;2022-11-27T11:28:43;6.47;;;4.47;;
20417;SDS011;10368;51.436;6.774;2022-11-27T11:31:13;5.43;;;4.37;;
20417;SDS011;10368;51.436;6.774;2022-11-27T11:33:46;7.73;;;4.33;;
20417;SDS011;10368;51.436;6.774;2022-11-27T11:36:14;5.73;;;3.63;;
20417;SDS011;10368;51.436;6.774;2022-11-27T11:38:43;7.53;;;4.13;;
20417;SDS011;10368;51.436;6.774;2022-11-27T11:41:11;5.83;;;4.50;;
20417;SDS011;10368;51.436;6.774;2022-11-27T11:43:38;6.93;;;4.30;;
20417;SDS011;10368;51.436;6.774;2022-11-27T11:46:28;5.77;;;4.13;;
20417;SDS011;10368;51.436;6.774;2022-11-27T11:49:14;7.93;;;4.30;;
20417;SDS011;10368;51.436;6.774;2022-11-27T11:54:19;5.83;;;4.07;;
20417;SDS011;10368;51.436;6.774;2022-11-27T11:56:50;4.97;;;3.60;;
20417;SDS011;10368;51.436;6.774;2022-11-27T11:59:25;6.87;;;3.83;;
20417;SDS011;10368;51.436;6.774;2022-11-27T12:01:59;5.13;;;3.77;;
20417;SDS011;10368;51.436;6.774;2022-11-27T12:17:41;5.13;;;3.93;;
20417;SDS011;10368;51.436;6.774;2022-11-27T12:20:23;4.47;;;4.07;;
20417;SDS011;10368;51.436;6.774;2022-11-27T12:23:06;5.40;;;3.67;;
20417;SDS011;10368;51.436;6.774;2022-11-27T12:30:57;4.17;;;3.63;;
20417;SDS011;10368;51.436;6.774;2022-11-27T12:38:47;4.67;;;3.73;;
20417;SDS011;10368;51.436;6.774;2022-11-27T12:43:57;6.87;;;3.80;;
20417;SDS011;10368;51.436;6.774;2022-11-27T12:46:38;4.00;;;3.10;;
20417;SDS011;10368;51.436;6.774;2022-11-27T12:52:10;6.83;;;4.13;;
20417;SDS011;10368;51.436;6.774;2022-11-27T12:54:49;3.77;;;3.00;;
20417;SDS011;10368;51.436;6.774;2022-11-27T12:57:38;6.00;;;3.43;;
20417;SDS011;10368;51.436;6.774;2022-11-27T13:00:17;4.40;;;3.30;;
20417;SDS011;10368;51.436;6.774;2022-11-27T13:05:32;4.57;;;3.83;;
20417;SDS011;10368;51.436;6.774;2022-11-27T13:10:45;5.13;;;3.37;;
20417;SDS011;10368;51.436;6.774;2022-11-27T13:13:14;4.47;;;3.43;;
20417;SDS011;10368;51.436;6.774;2022-11-27T13:15:49;9.60;;;4.20;;
20417;SDS011;10368;51.436;6.774;2022-11-27T13:18:34;4.23;;;3.50;;
20417;SDS011;10368;51.436;6.774;2022-11-27T13:21:10;5.60;;;3.60;;
20417;SDS011;10368;51.436;6.774;2022-11-27T13:23:39;4.30;;;2.93;;
20417;SDS011;10368;51.436;6.774;2022-11-27T13:26:44;9.10;;;3.30;;
20417;SDS011;10368;51.436;6.774;2022-11-27T13:29:07;5.00;;;3.87;;
20417;SDS011;10368;51.436;6.774;2022-11-27T13:31:41;5.33;;;4.27;;
20417;SDS011;10368;51.436;6.774;2022-11-27T13:34:17;4.23;;;3.37;;
20417;SDS011;10368;51.436;6.774;2022-11-27T13:36:46;5.83;;;3.60;;
20417;SDS011;10368;51.436;6.774;2022-11-27T13:39:20;6.17;;;3.93;;
20417;SDS011;10368;51.436;6.774;2022-11-27T13:41:48;5.20;;;3.27;;
20417;SDS011;10368;51.436;6.774;2022-11-27T13:44:25;11.27;;;3.57;;
20417;SDS011;10368;51.436;6.774;2022-11-27T13:46:55;4.53;;;3.30;;
20417;SDS011;10368;51.436;6.774;2022-11-27T13:49:25;4.73;;;3.73;;
20417;SDS011;10368;51.436;6.774;2022-11-27T13:52:07;5.57;;;3.53;;
20417;SDS011;10368;51.436;6.774;2022-11-27T13:54:35;4.93;;;3.60;;
20417;SDS011;10368;51.436;6.774;2022-11-27T13:57:14;4.53;;;3.00;;
20417;SDS011;10368;51.436;6.774;2022-11-27T13:59:53;5.60;;;4.13;;
20417;SDS011;10368;51.436;6.774;2022-11-27T14:02:20;6.23;;;5.00;;
20417;SDS011;10368;51.436;6.774;2022-11-27T14:04:48;7.13;;;3.93;;
20417;SDS011;10368;51.436;6.774;2022-11-27T14:07:21;4.70;;;3.30;;
20417;SDS011;10368;51.436;6.774;2022-11-27T14:09:53;4.63;;;3.30;;
20417;SDS011;10368;51.436;6.774;2022-11-27T14:12:26;5.20;;;3.80;;
20417;SDS011;10368;51.436;6.774;2022-11-27T14:15:41;6.30;;;3.60;;
20417;SDS011;10368;51.436;6.774;2022-11-27T14:17:44;5.00;;;3.90;;
20417;SDS011;10368;51.436;6.774;2022-11-27T14:25:34;4.87;;;3.27;;
20417;SDS011;10368;51.436;6.774;2022-11-27T14:28:12;4.43;;;3.57;;
20417;SDS011;10368;51.436;6.774;2022-11-27T14:30:48;5.37;;;3.83;;
20417;SDS011;10368;51.436;6.774;2022-11-27T14:33:26;6.00;;;4.57;;
20417;SDS011;10368;51.436;6.774;2022-11-27T14:35:54;5.47;;;3.97;;
20417;SDS011;10368;51.436;6.774;2022-11-27T14:38:22;5.47;;;4.30;;
20417;SDS011;10368;51.436;6.774;2022-11-27T14:40:51;6.80;;;4.20;;
20417;SDS011;10368;51.436;6.774;2022-11-27T14:43:20;5.57;;;4.03;;
20417;SDS011;10368;51.436;6.774;2022-11-27T14:45:49;6.93;;;4.10;;
20417;SDS011;10368;51.436;6.774;2022-11-27T14:48:18;6.00;;;3.73;;
20417;SDS011;10368;51.436;6.774;2022-11-27T14:50:47;6.60;;;3.60;;
20417;SDS011;10368;51.436;6.774;2022-11-27T14:53:15;4.17;;;3.40;;
20417;SDS011;10368;51.436;6.774;2022-11-27T14:55:44;5.43;;;4.07;;
20417;SDS011;10368;51.436;6.774;2022-11-27T14:58:21;5.90;;;4.13;;
20417;SDS011;10368;51.436;6.774;2022-11-27T15:00:59;4.63;;;3.27;;
20417;SDS011;10368;51.436;6.774;2022-11-27T15:03:26;5.57;;;3.90;;
20417;SDS011;10368;51.436;6.774;2022-11-27T15:05:56;5.27;;;3.50;;
20417;SDS011;10368;51.436;6.774;2022-11-27T15:08:24;3.50;;;3.20;;
20417;SDS011;10368;51.436;6.774;2022-11-27T15:10:52;4.13;;;3.50;;
20417;SDS011;10368;51.436;6.774;2022-11-27T15:13:21;5.23;;;4.70;;
20417;SDS011;10368;51.436;6.774;2022-11-27T15:15:53;4.87;;;3.60;;
20417;SDS011;10368;51.436;6.774;2022-11-27T15:18:22;4.70;;;3.43;;
20417;SDS011;10368;51.436;6.774;2022-11-27T15:20:50;9.20;;;5.53;;
20417;SDS011;10368;51.436;6.774;2022-11-27T15:23:27;5.57;;;3.67;;
20417;SDS011;10368;51.436;6.774;2022-11-27T15:34:18;6.13;;;3.50;;
20417;SDS011;10368;51.436;6.774;2022-11-27T15:36:47;7.43;;;4.40;;
20417;SDS011;10368;51.436;6.774;2022-11-27T15:41:53;4.10;;;3.17;;
20417;SDS011;10368;51.436;6.774;2022-11-27T15:44:22;6.30;;;3.73;;
20417;SDS011;10368;51.436;6.774;2022-11-27T15:49:52;4.60;;;3.10;;
20417;SDS011;10368;51.436;6.774;2022-11-27T15:52:19;12.43;;;6.40;;
20417;SDS011;10368;51.436;6.774;2022-11-27T15:54:47;8.10;;;6.00;;
20417;SDS011;10368;51.436;6.774;2022-11-27T15:57:15;7.53;;;3.33;;
20417;SDS011;10368;51.436;6.774;2022-11-27T15:59:43;7.17;;;4.70;;
20417;SDS011;10368;51.436;6.774;2022-11-27T16:02:10;4.47;;;3.43;;
20417;SDS011;10368;51.436;6.774;2022-11-27T16:04:43;5.87;;;4.13;;
20417;SDS011;10368;51.436;6.774;2022-11-27T16:07:13;5.77;;;3.83;;
20417;SDS011;10368;51.436;6.774;2022-11-27T16:09:41;6.17;;;4.70;;
20417;SDS011;10368;51.436;6.774;2022-11-27T16:12:08;4.97;;;3.87;;
20417;SDS011;10368;51.436;6.774;2022-11-27T16:14:35;6.37;;;4.10;;
20417;SDS011;10368;51.436;6.774;2022-11-27T16:17:02;7.83;;;4.97;;
20417;SDS011;10368;51.436;6.774;2022-11-27T16:19:30;5.53;;;3.53;;
20417;SDS011;10368;51.436;6.774;2022-11-27T16:21:57;4.43;;;3.83;;
20417;SDS011;10368;51.436;6.774;2022-11-27T16:24:26;12.33;;;6.33;;
20417;SDS011;10368;51.436;6.774;2022-11-27T16:26:53;4.57;;;3.97;;
20417;SDS011;10368;51.436;6.774;2022-11-27T16:29:20;5.23;;;3.80;;
20417;SDS011;10368;51.436;6.774;2022-11-27T16:31:48;4.77;;;3.40;;
20417;SDS011;10368;51.436;6.774;2022-11-27T16:34:16;5.20;;;4.23;;
20417;SDS011;10368;51.436;6.774;2022-11-27T16:36:43;4.97;;;3.93;;
20417;SDS011;10368;51.436;6.774;2022-11-27T16:39:15;5.13;;;3.73;;
20417;SDS011;10368;51.436;6.774;2022-11-27T16:41:42;4.10;;;2.63;;
20417;SDS011;10368;51.436;6.774;2022-11-27T16:44:11;6.00;;;3.20;;
20417;SDS011;10368;51.436;6.774;2022-11-27T16:46:38;10.37;;;7.60;;
20417;SDS011;10368;51.436;6.774;2022-11-27T16:49:06;4.37;;;3.97;;
20417;SDS011;10368;51.436;6.774;2022-11-27T16:51:33;5.47;;;3.73;;
20417;SDS011;10368;51.436;6.774;2022-11-27T16:54:01;4.73;;;3.73;;
20417;SDS011;10368;51.436;6.774;2022-11-27T16:56:30;4.37;;;3.60;;
20417;SDS011;10368;51.436;6.774;2022-11-27T16:58:57;4.67;;;3.70;;
20417;SDS011;10368;51.436;6.774;2022-11-27T17:01:31;5.60;;;3.83;;
20417;SDS011;10368;51.436;6.774;2022-11-27T17:04:03;4.07;;;3.50;;